OCN912 EDDF-LDSP
Flight info
| Callsign | OCN912 |
|---|---|
| Flight time | 1h 26m |
| Altitude | 35000 |
| Route | CINDY8S/18 CINDY Z74 LAMPU DCT NOMBO Y161 MAH DCT VAVOR DCT RADIZ DCT ALIVO DCT NUPSO |
| Aircraft | A20N/M-SDE2E3FGHIRWXY/LB1 |
Departure
| Time | 2026-05-06 16:35 |
|---|---|
| Airport | Frankfurt Main Airport (EDDF) |
Arrival
| Time | 2026-05-06 18:01 |
|---|---|
| Airport | Split Saint Jerome Airport (LDSP) |
| Time | Latitude | Longitude | Altitude | Speed | Heading |
|---|---|---|---|---|---|
| 2026-05-06 16:00 | 50.04416 | 8.56277 | 356 ft | 0 kts | 164° |
| 2026-05-06 16:19 | 50.04423 | 8.56274 | 350 ft | 3 kts | 164° |
| 2026-05-06 16:20 | 50.04443 | 8.56266 | 359 ft | 3 kts | 166° |
| 2026-05-06 16:20 | 50.04462 | 8.56259 | 356 ft | 3 kts | 173° |
| 2026-05-06 16:20 | 50.04477 | 8.56259 | 355 ft | 2 kts | 202° |
| 2026-05-06 16:20 | 50.04485 | 8.56266 | 358 ft | 1 kts | 233° |
| 2026-05-06 16:21 | 50.04489 | 8.56276 | 358 ft | 1 kts | 245° |
| 2026-05-06 16:21 | 50.04492 | 8.56288 | 357 ft | 1 kts | 249° |
| 2026-05-06 16:21 | 50.04494 | 8.56294 | 356 ft | 0 kts | 249° |
| 2026-05-06 16:24 | 50.04494 | 8.56292 | 348 ft | 1 kts | 249° |
| 2026-05-06 16:24 | 50.04482 | 8.56243 | 356 ft | 8 kts | 250° |
| 2026-05-06 16:24 | 50.04460 | 8.56151 | 354 ft | 9 kts | 250° |
| 2026-05-06 16:25 | 50.04440 | 8.56065 | 355 ft | 7 kts | 249° |
| 2026-05-06 16:25 | 50.04406 | 8.56026 | 348 ft | 6 kts | 192° |
| 2026-05-06 16:25 | 50.04357 | 8.56047 | 351 ft | 11 kts | 159° |
| 2026-05-06 16:25 | 50.04274 | 8.56069 | 348 ft | 5 kts | 201° |
| 2026-05-06 16:26 | 50.04264 | 8.56041 | 351 ft | 5 kts | 251° |
| 2026-05-06 16:26 | 50.04238 | 8.55932 | 353 ft | 16 kts | 249° |
| 2026-05-06 16:26 | 50.04191 | 8.55740 | 352 ft | 20 kts | 249° |
| 2026-05-06 16:26 | 50.04143 | 8.55536 | 351 ft | 19 kts | 250° |
| 2026-05-06 16:27 | 50.04098 | 8.55347 | 349 ft | 18 kts | 250° |
| 2026-05-06 16:27 | 50.04058 | 8.55183 | 350 ft | 14 kts | 249° |
| 2026-05-06 16:27 | 50.04027 | 8.55054 | 352 ft | 9 kts | 249° |
| 2026-05-06 16:27 | 50.04006 | 8.54965 | 355 ft | 8 kts | 250° |
| 2026-05-06 16:28 | 50.03987 | 8.54884 | 350 ft | 8 kts | 250° |
| 2026-05-06 16:28 | 50.03961 | 8.54777 | 350 ft | 15 kts | 250° |
| 2026-05-06 16:28 | 50.03931 | 8.54648 | 353 ft | 12 kts | 250° |
| 2026-05-06 16:28 | 50.03901 | 8.54524 | 352 ft | 13 kts | 250° |
| 2026-05-06 16:29 | 50.03869 | 8.54392 | 351 ft | 13 kts | 246° |
| 2026-05-06 16:29 | 50.03815 | 8.54272 | 348 ft | 14 kts | 236° |
| 2026-05-06 16:29 | 50.03787 | 8.54167 | 352 ft | 1 kts | 248° |
| 2026-05-06 16:29 | 50.03774 | 8.54114 | 355 ft | 12 kts | 250° |
| 2026-05-06 16:30 | 50.03749 | 8.54009 | 355 ft | 10 kts | 250° |
| 2026-05-06 16:30 | 50.03732 | 8.53935 | 351 ft | 9 kts | 249° |
| 2026-05-06 16:30 | 50.03695 | 8.53783 | 350 ft | 10 kts | 249° |
| 2026-05-06 16:30 | 50.03664 | 8.53655 | 351 ft | 14 kts | 250° |
| 2026-05-06 16:31 | 50.03643 | 8.53573 | 354 ft | 9 kts | 248° |
| 2026-05-06 16:31 | 50.03622 | 8.53492 | 347 ft | 7 kts | 248° |
| 2026-05-06 16:31 | 50.03606 | 8.53424 | 356 ft | 8 kts | 250° |
| 2026-05-06 16:31 | 50.03580 | 8.53315 | 349 ft | 12 kts | 250° |
| 2026-05-06 16:32 | 50.03555 | 8.53211 | 349 ft | 10 kts | 249° |
| 2026-05-06 16:32 | 50.03495 | 8.53121 | 346 ft | 13 kts | 206° |
| 2026-05-06 16:32 | 50.03429 | 8.53029 | 350 ft | 12 kts | 247° |
| 2026-05-06 16:32 | 50.03394 | 8.52882 | 347 ft | 16 kts | 251° |
| 2026-05-06 16:33 | 50.03361 | 8.52740 | 355 ft | 5 kts | 249° |
| 2026-05-06 16:33 | 50.03341 | 8.52666 | 350 ft | 10 kts | 241° |
| 2026-05-06 16:33 | 50.03289 | 8.52599 | 349 ft | 8 kts | 204° |
| 2026-05-06 16:34 | 50.03273 | 8.52595 | 352 ft | 0 kts | 181° |
| 2026-05-06 16:34 | 50.03097 | 8.52596 | 346 ft | 65 kts | 180° |
| 2026-05-06 16:34 | 50.02390 | 8.52602 | 350 ft | 135 kts | 179° |
| 2026-05-06 16:34 | 50.01311 | 8.52639 | 645 ft | 164 kts | 182° |
| 2026-05-06 16:35 | 50.00184 | 8.52648 | 1495 ft | 160 kts | 182° |
| 2026-05-06 16:35 | 49.99071 | 8.52645 | 2289 ft | 161 kts | 184° |
| 2026-05-06 16:35 | 49.97892 | 8.52663 | 2777 ft | 180 kts | 176° |
| 2026-05-06 16:35 | 49.96655 | 8.53349 | 3322 ft | 202 kts | 147° |
| 2026-05-06 16:36 | 49.95703 | 8.55095 | 3883 ft | 226 kts | 121° |
| 2026-05-06 16:36 | 49.94910 | 8.57339 | 4552 ft | 241 kts | 120° |
| 2026-05-06 16:36 | 49.94235 | 8.59704 | 5632 ft | 241 kts | 108° |
| 2026-05-06 16:36 | 49.93974 | 8.62299 | 6606 ft | 247 kts | 94° |
| 2026-05-06 16:37 | 49.93896 | 8.65056 | 7274 ft | 266 kts | 94° |
| 2026-05-06 16:37 | 49.93682 | 8.68003 | 7849 ft | 282 kts | 109° |
| 2026-05-06 16:37 | 49.92720 | 8.70624 | 8735 ft | 281 kts | 136° |
| 2026-05-06 16:37 | 49.91196 | 8.72516 | 9690 ft | 282 kts | 146° |
| 2026-05-06 16:38 | 49.89586 | 8.74347 | 10375 ft | 295 kts | 141° |
| 2026-05-06 16:38 | 49.88105 | 8.76701 | 10759 ft | 318 kts | 130° |
| 2026-05-06 16:38 | 49.86875 | 8.79706 | 11138 ft | 340 kts | 120° |
| 2026-05-06 16:38 | 49.85727 | 8.82949 | 11922 ft | 344 kts | 121° |
| 2026-05-06 16:39 | 49.84563 | 8.86208 | 12760 ft | 349 kts | 121° |
| 2026-05-06 16:39 | 49.83387 | 8.89472 | 13554 ft | 353 kts | 121° |
| 2026-05-06 16:39 | 49.82179 | 8.92806 | 14289 ft | 357 kts | 121° |
| 2026-05-06 16:39 | 49.80957 | 8.96168 | 15046 ft | 360 kts | 121° |
| 2026-05-06 16:40 | 49.79719 | 8.99565 | 15773 ft | 364 kts | 121° |
| 2026-05-06 16:40 | 49.78470 | 9.02990 | 16505 ft | 367 kts | 121° |
| 2026-05-06 16:40 | 49.77211 | 9.06458 | 17216 ft | 372 kts | 120° |
| 2026-05-06 16:40 | 49.76150 | 9.10131 | 17934 ft | 377 kts | 111° |
| 2026-05-06 16:41 | 49.75422 | 9.13987 | 18558 ft | 382 kts | 105° |
| 2026-05-06 16:41 | 49.74560 | 9.17867 | 19167 ft | 382 kts | 117° |
| 2026-05-06 16:41 | 49.73195 | 9.21399 | 19794 ft | 382 kts | 128° |
| 2026-05-06 16:41 | 49.71465 | 9.24543 | 20401 ft | 385 kts | 133° |
| 2026-05-06 16:42 | 49.69682 | 9.27646 | 21018 ft | 388 kts | 133° |
| 2026-05-06 16:42 | 49.67887 | 9.30796 | 21621 ft | 391 kts | 133° |
| 2026-05-06 16:42 | 49.66085 | 9.33971 | 22217 ft | 395 kts | 133° |
| 2026-05-06 16:42 | 49.64271 | 9.37173 | 22811 ft | 398 kts | 133° |
| 2026-05-06 16:43 | 49.62364 | 9.40202 | 23380 ft | 399 kts | 139° |
| 2026-05-06 16:43 | 49.60198 | 9.42883 | 23886 ft | 400 kts | 146° |
| 2026-05-06 16:43 | 49.57838 | 9.45160 | 24412 ft | 401 kts | 151° |
| 2026-05-06 16:43 | 49.55424 | 9.47339 | 24944 ft | 403 kts | 151° |
| 2026-05-06 16:44 | 49.53004 | 9.49539 | 25424 ft | 405 kts | 150° |
| 2026-05-06 16:44 | 49.50578 | 9.51749 | 25920 ft | 406 kts | 150° |
| 2026-05-06 16:44 | 49.48138 | 9.53973 | 26393 ft | 408 kts | 150° |
| 2026-05-06 16:44 | 49.45686 | 9.56205 | 26859 ft | 410 kts | 150° |
| 2026-05-06 16:45 | 49.43225 | 9.58444 | 27321 ft | 412 kts | 150° |
| 2026-05-06 16:45 | 49.40752 | 9.60690 | 27770 ft | 414 kts | 150° |
| 2026-05-06 16:45 | 49.38271 | 9.62940 | 28194 ft | 415 kts | 150° |
| 2026-05-06 16:45 | 49.35786 | 9.65233 | 28607 ft | 417 kts | 148° |
| 2026-05-06 16:46 | 49.33433 | 9.67869 | 28997 ft | 421 kts | 142° |
| 2026-05-06 16:46 | 49.31272 | 9.70914 | 29386 ft | 424 kts | 137° |
| 2026-05-06 16:46 | 49.29190 | 9.74129 | 29775 ft | 426 kts | 137° |
| 2026-05-06 16:46 | 49.27094 | 9.77347 | 30107 ft | 428 kts | 137° |
| 2026-05-06 16:47 | 49.24984 | 9.80573 | 30427 ft | 430 kts | 137° |
| 2026-05-06 16:47 | 49.22860 | 9.83808 | 30745 ft | 432 kts | 137° |
| 2026-05-06 16:47 | 49.20728 | 9.87048 | 31087 ft | 433 kts | 138° |
| 2026-05-06 16:47 | 49.18592 | 9.90289 | 31494 ft | 432 kts | 138° |
| 2026-05-06 16:48 | 49.16458 | 9.93524 | 31893 ft | 431 kts | 138° |
| 2026-05-06 16:48 | 49.14329 | 9.96747 | 32288 ft | 431 kts | 138° |
| 2026-05-06 16:48 | 49.12200 | 9.99965 | 32660 ft | 431 kts | 138° |
| 2026-05-06 16:48 | 49.10071 | 10.03180 | 33014 ft | 430 kts | 138° |
| 2026-05-06 16:49 | 49.07942 | 10.06390 | 33368 ft | 430 kts | 138° |
| 2026-05-06 16:49 | 49.05837 | 10.09559 | 33709 ft | 430 kts | 139° |
| 2026-05-06 16:49 | 49.03646 | 10.12738 | 34000 ft | 430 kts | 140° |
| 2026-05-06 16:49 | 49.01478 | 10.15791 | 34248 ft | 430 kts | 141° |
| 2026-05-06 16:50 | 48.99275 | 10.18875 | 34493 ft | 431 kts | 141° |
| 2026-05-06 16:50 | 48.97066 | 10.21974 | 34731 ft | 432 kts | 141° |
| 2026-05-06 16:50 | 48.94858 | 10.25080 | 34813 ft | 432 kts | 141° |
| 2026-05-06 16:51 | 48.90452 | 10.31295 | 34827 ft | 431 kts | 141° |
| 2026-05-06 16:51 | 48.86051 | 10.37495 | 34821 ft | 432 kts | 141° |
| 2026-05-06 16:52 | 48.82024 | 10.43305 | 34816 ft | 434 kts | 137° |
| 2026-05-06 16:52 | 48.78080 | 10.49651 | 34809 ft | 434 kts | 137° |
| 2026-05-06 16:53 | 48.73943 | 10.56280 | 34809 ft | 435 kts | 137° |
| 2026-05-06 16:53 | 48.69777 | 10.62926 | 34801 ft | 436 kts | 138° |
| 2026-05-06 16:54 | 48.65908 | 10.69081 | 34795 ft | 437 kts | 138° |
| 2026-05-06 16:54 | 48.61704 | 10.75753 | 34788 ft | 438 kts | 138° |
| 2026-05-06 16:55 | 48.57494 | 10.82425 | 34787 ft | 440 kts | 138° |
| 2026-05-06 16:55 | 48.53296 | 10.89146 | 34788 ft | 440 kts | 138° |
| 2026-05-06 16:56 | 48.49120 | 10.95825 | 34784 ft | 440 kts | 138° |
| 2026-05-06 16:56 | 48.44878 | 11.02477 | 34786 ft | 440 kts | 139° |
| 2026-05-06 16:57 | 48.40619 | 11.09089 | 34786 ft | 440 kts | 139° |
| 2026-05-06 16:57 | 48.36346 | 11.15721 | 34790 ft | 440 kts | 139° |
| 2026-05-06 16:58 | 48.32078 | 11.22334 | 34794 ft | 441 kts | 139° |
| 2026-05-06 16:58 | 48.27834 | 11.28987 | 34809 ft | 443 kts | 136° |
| 2026-05-06 16:59 | 48.24237 | 11.36557 | 34798 ft | 451 kts | 124° |
| 2026-05-06 16:59 | 48.21119 | 11.44724 | 34804 ft | 451 kts | 125° |
| 2026-05-06 17:00 | 48.17975 | 11.52868 | 34809 ft | 451 kts | 125° |
| 2026-05-06 17:00 | 48.14848 | 11.60920 | 34830 ft | 452 kts | 125° |
| 2026-05-06 17:01 | 48.11682 | 11.69047 | 34799 ft | 452 kts | 125° |
| 2026-05-06 17:01 | 48.08502 | 11.77185 | 34819 ft | 453 kts | 125° |
| 2026-05-06 17:02 | 48.05311 | 11.85328 | 34815 ft | 454 kts | 125° |
| 2026-05-06 17:02 | 48.02108 | 11.93473 | 34821 ft | 456 kts | 125° |
| 2026-05-06 17:03 | 47.98884 | 12.01646 | 34806 ft | 457 kts | 125° |
| 2026-05-06 17:03 | 47.95635 | 12.09804 | 34799 ft | 457 kts | 127° |
| 2026-05-06 17:04 | 47.91749 | 12.17203 | 34790 ft | 450 kts | 139° |
| 2026-05-06 17:04 | 47.87106 | 12.23386 | 34772 ft | 447 kts | 145° |
| 2026-05-06 17:05 | 47.83139 | 12.28331 | 34768 ft | 448 kts | 144° |
| 2026-05-06 17:05 | 47.78365 | 12.34297 | 34754 ft | 448 kts | 144° |
| 2026-05-06 17:06 | 47.72812 | 12.41219 | 34727 ft | 447 kts | 144° |
| 2026-05-06 17:06 | 47.68818 | 12.46183 | 34717 ft | 447 kts | 144° |
| 2026-05-06 17:07 | 47.64037 | 12.52111 | 34711 ft | 448 kts | 144° |
| 2026-05-06 17:07 | 47.59106 | 12.57727 | 34712 ft | 447 kts | 148° |
| 2026-05-06 17:08 | 47.54143 | 12.63156 | 34709 ft | 446 kts | 148° |
| 2026-05-06 17:08 | 47.49145 | 12.68623 | 34713 ft | 447 kts | 148° |
| 2026-05-06 17:09 | 47.44132 | 12.74096 | 34725 ft | 449 kts | 148° |
| 2026-05-06 17:09 | 47.39106 | 12.79564 | 34738 ft | 448 kts | 148° |
| 2026-05-06 17:10 | 47.34077 | 12.85021 | 34755 ft | 449 kts | 148° |
| 2026-05-06 17:10 | 47.29040 | 12.90475 | 34758 ft | 448 kts | 148° |
| 2026-05-06 17:11 | 47.24027 | 12.95892 | 34770 ft | 447 kts | 148° |
| 2026-05-06 17:11 | 47.19009 | 13.01298 | 34782 ft | 447 kts | 148° |
| 2026-05-06 17:12 | 47.13989 | 13.06696 | 34790 ft | 446 kts | 148° |
| 2026-05-06 17:12 | 47.08972 | 13.12077 | 34810 ft | 447 kts | 148° |
| 2026-05-06 17:13 | 47.03940 | 13.17459 | 34822 ft | 447 kts | 148° |
| 2026-05-06 17:13 | 46.98916 | 13.22822 | 34833 ft | 447 kts | 148° |
| 2026-05-06 17:14 | 46.93907 | 13.28155 | 34841 ft | 448 kts | 148° |
| 2026-05-06 17:14 | 46.88865 | 13.33512 | 34859 ft | 448 kts | 149° |
| 2026-05-06 17:15 | 46.83808 | 13.38870 | 34870 ft | 449 kts | 149° |
| 2026-05-06 17:15 | 46.78748 | 13.44220 | 34856 ft | 449 kts | 148° |
| 2026-05-06 17:16 | 46.73687 | 13.49560 | 34861 ft | 449 kts | 149° |
| 2026-05-06 17:16 | 46.68618 | 13.54892 | 34857 ft | 449 kts | 149° |
| 2026-05-06 17:17 | 46.63547 | 13.60215 | 34852 ft | 449 kts | 149° |
| 2026-05-06 17:17 | 46.58472 | 13.65531 | 34862 ft | 450 kts | 149° |
| 2026-05-06 17:18 | 46.53416 | 13.70813 | 34870 ft | 450 kts | 149° |
| 2026-05-06 17:18 | 46.48323 | 13.76122 | 34876 ft | 451 kts | 149° |
| 2026-05-06 17:19 | 46.43224 | 13.81424 | 34880 ft | 451 kts | 149° |
| 2026-05-06 17:19 | 46.38124 | 13.86715 | 34882 ft | 451 kts | 149° |
| 2026-05-06 17:20 | 46.33019 | 13.92000 | 34886 ft | 451 kts | 149° |
| 2026-05-06 17:20 | 46.27902 | 13.97283 | 34891 ft | 451 kts | 149° |
| 2026-05-06 17:21 | 46.22786 | 14.02554 | 34898 ft | 451 kts | 149° |
| 2026-05-06 17:21 | 46.17675 | 14.07807 | 34900 ft | 451 kts | 149° |
| 2026-05-06 17:22 | 46.12561 | 14.13051 | 34910 ft | 451 kts | 149° |
| 2026-05-06 17:22 | 46.07478 | 14.18251 | 34914 ft | 451 kts | 149° |
| 2026-05-06 17:23 | 46.02363 | 14.23472 | 34918 ft | 451 kts | 149° |
| 2026-05-06 17:23 | 45.97229 | 14.28700 | 34918 ft | 451 kts | 149° |
| 2026-05-06 17:24 | 45.92105 | 14.33906 | 34921 ft | 451 kts | 149° |
| 2026-05-06 17:24 | 45.86986 | 14.39096 | 34911 ft | 449 kts | 149° |
| 2026-05-06 17:25 | 45.81874 | 14.44265 | 34914 ft | 450 kts | 149° |
| 2026-05-06 17:25 | 45.76749 | 14.49435 | 34916 ft | 450 kts | 149° |
| 2026-05-06 17:26 | 45.71622 | 14.54596 | 34921 ft | 451 kts | 149° |
| 2026-05-06 17:26 | 45.66474 | 14.59766 | 34925 ft | 452 kts | 149° |
| 2026-05-06 17:27 | 45.61322 | 14.64929 | 34929 ft | 453 kts | 149° |
| 2026-05-06 17:27 | 45.56185 | 14.70068 | 34935 ft | 454 kts | 149° |
| 2026-05-06 17:28 | 45.50941 | 14.75074 | 34938 ft | 452 kts | 154° |
| 2026-05-06 17:28 | 45.45480 | 14.79533 | 34943 ft | 452 kts | 154° |
| 2026-05-06 17:29 | 45.40028 | 14.84016 | 34939 ft | 452 kts | 154° |
| 2026-05-06 17:29 | 45.34570 | 14.88491 | 34939 ft | 452 kts | 154° |
| 2026-05-06 17:30 | 45.29111 | 14.92953 | 34940 ft | 453 kts | 154° |
| 2026-05-06 17:30 | 45.23643 | 14.97412 | 34936 ft | 453 kts | 154° |
| 2026-05-06 17:31 | 45.18170 | 15.01865 | 34942 ft | 453 kts | 155° |
| 2026-05-06 17:31 | 45.12699 | 15.06306 | 34933 ft | 453 kts | 155° |
| 2026-05-06 17:32 | 45.07257 | 15.10713 | 34939 ft | 454 kts | 155° |
| 2026-05-06 17:32 | 45.01738 | 15.15174 | 34943 ft | 454 kts | 155° |
| 2026-05-06 17:33 | 44.96275 | 15.19578 | 34952 ft | 455 kts | 155° |
| 2026-05-06 17:33 | 44.90772 | 15.24006 | 34956 ft | 455 kts | 155° |
| 2026-05-06 17:34 | 44.85279 | 15.28417 | 34685 ft | 453 kts | 155° |
| 2026-05-06 17:34 | 44.82537 | 15.30614 | 34044 ft | 455 kts | 155° |
| 2026-05-06 17:34 | 44.79763 | 15.32832 | 33058 ft | 461 kts | 155° |
| 2026-05-06 17:34 | 44.76953 | 15.35076 | 31980 ft | 467 kts | 155° |
| 2026-05-06 17:35 | 44.74138 | 15.37330 | 31415 ft | 462 kts | 156° |
| 2026-05-06 17:35 | 44.71374 | 15.39546 | 30949 ft | 454 kts | 156° |
| 2026-05-06 17:35 | 44.68625 | 15.41741 | 30209 ft | 454 kts | 156° |
| 2026-05-06 17:36 | 44.63205 | 15.46051 | 28868 ft | 446 kts | 156° |
| 2026-05-06 17:36 | 44.60515 | 15.48187 | 28206 ft | 442 kts | 156° |
| 2026-05-06 17:36 | 44.57849 | 15.50302 | 27552 ft | 439 kts | 156° |
| 2026-05-06 17:36 | 44.55195 | 15.52404 | 26902 ft | 436 kts | 156° |
| 2026-05-06 17:37 | 44.52557 | 15.54492 | 26282 ft | 433 kts | 156° |
| 2026-05-06 17:37 | 44.49956 | 15.56550 | 25789 ft | 427 kts | 155° |
| 2026-05-06 17:37 | 44.47381 | 15.58586 | 25213 ft | 423 kts | 155° |
| 2026-05-06 17:37 | 44.44822 | 15.60605 | 24631 ft | 420 kts | 155° |
| 2026-05-06 17:38 | 44.42282 | 15.62606 | 24067 ft | 417 kts | 155° |
| 2026-05-06 17:38 | 44.39766 | 15.64610 | 23491 ft | 414 kts | 152° |
| 2026-05-06 17:38 | 44.37381 | 15.66813 | 23058 ft | 406 kts | 153° |
| 2026-05-06 17:38 | 44.34933 | 15.68760 | 22291 ft | 404 kts | 156° |
| 2026-05-06 17:39 | 44.32446 | 15.70569 | 21712 ft | 400 kts | 157° |
| 2026-05-06 17:39 | 44.29992 | 15.72369 | 21174 ft | 396 kts | 156° |
| 2026-05-06 17:39 | 44.27578 | 15.74186 | 20639 ft | 392 kts | 155° |
| 2026-05-06 17:39 | 44.25202 | 15.76013 | 20123 ft | 388 kts | 155° |
| 2026-05-06 17:40 | 44.22853 | 15.77840 | 19596 ft | 384 kts | 155° |
| 2026-05-06 17:40 | 44.20566 | 15.79626 | 19105 ft | 380 kts | 155° |
| 2026-05-06 17:40 | 44.18272 | 15.81420 | 18619 ft | 376 kts | 155° |
| 2026-05-06 17:40 | 44.16010 | 15.83187 | 18084 ft | 371 kts | 155° |
| 2026-05-06 17:41 | 44.13765 | 15.84939 | 17495 ft | 368 kts | 155° |
| 2026-05-06 17:41 | 44.11522 | 15.86649 | 16916 ft | 365 kts | 156° |
| 2026-05-06 17:41 | 44.09273 | 15.88260 | 16358 ft | 362 kts | 157° |
| 2026-05-06 17:41 | 44.07036 | 15.89834 | 15789 ft | 359 kts | 157° |
| 2026-05-06 17:42 | 44.04815 | 15.91399 | 15261 ft | 356 kts | 156° |
| 2026-05-06 17:42 | 44.02638 | 15.92942 | 14745 ft | 354 kts | 156° |
| 2026-05-06 17:42 | 44.00432 | 15.94512 | 14228 ft | 351 kts | 156° |
| 2026-05-06 17:42 | 43.98267 | 15.96057 | 13718 ft | 349 kts | 156° |
| 2026-05-06 17:43 | 43.96120 | 15.97590 | 13181 ft | 346 kts | 156° |
| 2026-05-06 17:43 | 43.93993 | 15.99109 | 12651 ft | 343 kts | 156° |
| 2026-05-06 17:43 | 43.91882 | 16.00615 | 12122 ft | 340 kts | 156° |
| 2026-05-06 17:43 | 43.89782 | 16.02111 | 11586 ft | 338 kts | 156° |
| 2026-05-06 17:44 | 43.87633 | 16.03368 | 11052 ft | 333 kts | 168° |
| 2026-05-06 17:44 | 43.85365 | 16.03770 | 10530 ft | 326 kts | 184° |
| 2026-05-06 17:44 | 43.83157 | 16.03340 | 10265 ft | 314 kts | 193° |
| 2026-05-06 17:44 | 43.81056 | 16.02779 | 10143 ft | 301 kts | 193° |
| 2026-05-06 17:45 | 43.79067 | 16.02264 | 10034 ft | 288 kts | 193° |
| 2026-05-06 17:45 | 43.77139 | 16.01769 | 9889 ft | 277 kts | 193° |
| 2026-05-06 17:45 | 43.75262 | 16.01282 | 9529 ft | 273 kts | 193° |
| 2026-05-06 17:45 | 43.73394 | 16.00795 | 9086 ft | 273 kts | 193° |
| 2026-05-06 17:46 | 43.71530 | 16.00305 | 8671 ft | 272 kts | 193° |
| 2026-05-06 17:46 | 43.69682 | 15.99819 | 8315 ft | 269 kts | 193° |
| 2026-05-06 17:46 | 43.67839 | 15.99337 | 7919 ft | 269 kts | 193° |
| 2026-05-06 17:46 | 43.66007 | 15.98859 | 7538 ft | 267 kts | 192° |
| 2026-05-06 17:47 | 43.64188 | 15.98385 | 7167 ft | 265 kts | 192° |
| 2026-05-06 17:47 | 43.62408 | 15.97922 | 7026 ft | 254 kts | 192° |
| 2026-05-06 17:47 | 43.60727 | 15.97487 | 6880 ft | 238 kts | 192° |
| 2026-05-06 17:47 | 43.59128 | 15.97072 | 6643 ft | 230 kts | 192° |
| 2026-05-06 17:48 | 43.57562 | 15.96665 | 6287 ft | 228 kts | 192° |
| 2026-05-06 17:48 | 43.56006 | 15.96258 | 5885 ft | 228 kts | 191° |
| 2026-05-06 17:48 | 43.54452 | 15.95853 | 5554 ft | 225 kts | 191° |
| 2026-05-06 17:48 | 43.52912 | 15.95452 | 5176 ft | 225 kts | 191° |
| 2026-05-06 17:49 | 43.51380 | 15.95052 | 4854 ft | 222 kts | 191° |
| 2026-05-06 17:49 | 43.49865 | 15.94647 | 4470 ft | 222 kts | 194° |
| 2026-05-06 17:49 | 43.48469 | 15.93783 | 4132 ft | 220 kts | 214° |
| 2026-05-06 17:49 | 43.47365 | 15.92339 | 3994 ft | 221 kts | 224° |
| 2026-05-06 17:50 | 43.46317 | 15.90827 | 3972 ft | 214 kts | 223° |
| 2026-05-06 17:50 | 43.45635 | 15.89858 | 3967 ft | 212 kts | 222° |
| 2026-05-06 17:50 | 43.44603 | 15.88409 | 3970 ft | 217 kts | 222° |
| 2026-05-06 17:50 | 43.43518 | 15.86897 | 3961 ft | 224 kts | 223° |
| 2026-05-06 17:51 | 43.42092 | 15.84896 | 3752 ft | 219 kts | 222° |
| 2026-05-06 17:51 | 43.41385 | 15.83899 | 3652 ft | 213 kts | 222° |
| 2026-05-06 17:51 | 43.40363 | 15.82458 | 3402 ft | 209 kts | 221° |
| 2026-05-06 17:51 | 43.39350 | 15.81035 | 3129 ft | 206 kts | 220° |
| 2026-05-06 17:52 | 43.38151 | 15.80115 | 2962 ft | 198 kts | 188° |
| 2026-05-06 17:52 | 43.36788 | 15.80314 | 2944 ft | 199 kts | 156° |
| 2026-05-06 17:52 | 43.35753 | 15.81573 | 2947 ft | 206 kts | 126° |
| 2026-05-06 17:52 | 43.35025 | 15.83282 | 2951 ft | 207 kts | 124° |
| 2026-05-06 17:53 | 43.34307 | 15.85001 | 2948 ft | 207 kts | 123° |
| 2026-05-06 17:53 | 43.33591 | 15.86705 | 2947 ft | 206 kts | 124° |
| 2026-05-06 17:53 | 43.32871 | 15.88408 | 2947 ft | 207 kts | 124° |
| 2026-05-06 17:53 | 43.32144 | 15.90117 | 2953 ft | 207 kts | 123° |
| 2026-05-06 17:54 | 43.31757 | 15.92034 | 2956 ft | 217 kts | 93° |
| 2026-05-06 17:54 | 43.32221 | 15.94112 | 2953 ft | 239 kts | 60° |
| 2026-05-06 17:54 | 43.33289 | 15.95878 | 2963 ft | 241 kts | 50° |
| 2026-05-06 17:54 | 43.34473 | 15.97519 | 2970 ft | 243 kts | 49° |
| 2026-05-06 17:55 | 43.35660 | 15.99137 | 2970 ft | 243 kts | 49° |
| 2026-05-06 17:55 | 43.36834 | 16.00778 | 2970 ft | 239 kts | 50° |
| 2026-05-06 17:55 | 43.37964 | 16.02403 | 2975 ft | 231 kts | 51° |
| 2026-05-06 17:55 | 43.39031 | 16.03959 | 2983 ft | 219 kts | 51° |
| 2026-05-06 17:56 | 43.40148 | 16.05409 | 2981 ft | 221 kts | 49° |
| 2026-05-06 17:56 | 43.41199 | 16.06929 | 2992 ft | 218 kts | 54° |
| 2026-05-06 17:56 | 43.42144 | 16.08537 | 2985 ft | 216 kts | 58° |
| 2026-05-06 17:56 | 43.43036 | 16.10160 | 3016 ft | 205 kts | 58° |
| 2026-05-06 17:57 | 43.43870 | 16.11665 | 2997 ft | 191 kts | 59° |
| 2026-05-06 17:57 | 43.44683 | 16.13148 | 2893 ft | 195 kts | 59° |
| 2026-05-06 17:57 | 43.45486 | 16.14592 | 2629 ft | 184 kts | 59° |
| 2026-05-06 17:57 | 43.46222 | 16.15920 | 2393 ft | 168 kts | 61° |
| 2026-05-06 17:58 | 43.46953 | 16.17255 | 2157 ft | 172 kts | 60° |
| 2026-05-06 17:58 | 43.47648 | 16.18501 | 1936 ft | 160 kts | 61° |
| 2026-05-06 17:58 | 43.48310 | 16.19706 | 1729 ft | 160 kts | 60° |
| 2026-05-06 17:58 | 43.48965 | 16.20884 | 1506 ft | 149 kts | 60° |
| 2026-05-06 17:59 | 43.49562 | 16.21960 | 1305 ft | 134 kts | 61° |
| 2026-05-06 17:59 | 43.50095 | 16.22923 | 1118 ft | 120 kts | 60° |
| 2026-05-06 17:59 | 43.50626 | 16.23899 | 949 ft | 131 kts | 58° |
| 2026-05-06 17:59 | 43.51168 | 16.24867 | 771 ft | 124 kts | 58° |
| 2026-05-06 18:00 | 43.51677 | 16.25790 | 600 ft | 121 kts | 57° |
| 2026-05-06 18:00 | 43.52205 | 16.26744 | 433 ft | 123 kts | 56° |
| 2026-05-06 18:00 | 43.52734 | 16.27673 | 291 ft | 130 kts | 58° |
| 2026-05-06 18:00 | 43.53271 | 16.28654 | 105 ft | 125 kts | 57° |
| 2026-05-06 18:01 | 43.53737 | 16.29514 | 76 ft | 83 kts | 53° |
| 2026-05-06 18:01 | 43.53940 | 16.29881 | 64 ft | 25 kts | 53° |
| 2026-05-06 18:01 | 43.54027 | 16.30039 | 58 ft | 0 kts | 52° |
| 2026-05-06 18:01 | 43.54039 | 16.30060 | 59 ft | 5 kts | 54° |
| 2026-05-06 18:02 | 43.54029 | 16.30104 | 59 ft | 6 kts | 163° |
| 2026-05-06 18:02 | 43.53985 | 16.30091 | 61 ft | 6 kts | 196° |
| 2026-05-06 18:02 | 43.53941 | 16.30073 | 64 ft | 7 kts | 197° |
| 2026-05-06 18:02 | 43.53895 | 16.30040 | 62 ft | 9 kts | 230° |
| 2026-05-06 18:03 | 43.53850 | 16.29959 | 68 ft | 13 kts | 233° |
| 2026-05-06 18:03 | 43.53805 | 16.29878 | 68 ft | 9 kts | 233° |
| 2026-05-06 18:03 | 43.53775 | 16.29823 | 64 ft | 1 kts | 233° |
| 2026-05-06 18:03 | 43.53763 | 16.29803 | 68 ft | 3 kts | 217° |
| 2026-05-06 18:04 | 43.53744 | 16.29818 | 68 ft | 3 kts | 117° |
| 2026-05-06 18:04 | 43.53736 | 16.29852 | 65 ft | 0 kts | 112° |
| 2026-05-06 18:04 | 43.53733 | 16.29864 | 63 ft | 1 kts | 110° |
| 2026-05-06 18:04 | 43.53729 | 16.29873 | 65 ft | 2 kts | 115° |
| 2026-05-06 18:05 | 43.53728 | 16.29877 | 66 ft | 0 kts | 115° |